Time;durP1;ratioP1;P1;durP2;ratioP2;P2;SDS_P1;SDS_P2;PMS_P1;PMS_P2;Temp;Humidity;BMP_temperature;BMP_pressure;BME280_temperature;BME280_humidity;BME280_pressure;Samples;Min_cycle;Max_cycle;Signal;HPM_P1;HPM_P2
2022/08/27 00:01:23;;;;;;;4.72;4.40;;;;;;;18.28;83.82;95533.00;5063741;28;20049;-56
2022/08/27 00:03:49;;;;;;;6.57;3.95;;;;;;;18.30;83.61;95533.63;5065768;28;20072;-57
2022/08/27 00:06:16;;;;;;;9.85;4.60;;;;;;;18.21;85.49;95534.78;5058424;28;20695;-57
2022/08/27 00:08:43;;;;;;;4.57;4.28;;;;;;;18.16;85.24;95531.88;5056217;28;20112;-58
2022/08/27 00:11:10;;;;;;;5.05;4.43;;;;;;;18.10;86.31;95530.78;5066337;28;20035;-58
2022/08/27 00:13:36;;;;;;;4.68;4.28;;;;;;;18.15;85.18;95536.38;5059247;28;20555;-55
2022/08/27 00:16:05;;;;;;;4.60;4.30;;;;;;;18.22;84.64;95528.41;5066820;28;20044;-58
2022/08/27 00:18:33;;;;;;;4.97;4.57;;;;;;;18.19;85.37;95542.13;5060339;28;20021;-57
2022/08/27 00:20:59;;;;;;;4.85;4.45;;;;;;;18.10;85.66;95533.47;5061086;28;20735;-57
2022/08/27 00:23:24;;;;;;;5.53;4.88;;;;;;;18.15;85.24;95533.72;5065171;28;20112;-56
2022/08/27 00:25:49;;;;;;;4.70;4.40;;;;;;;18.21;84.35;95537.44;5061121;28;20381;-56
2022/08/27 00:28:15;;;;;;;4.93;4.55;;;;;;;18.17;84.92;95531.69;5060704;28;20086;-55
2022/08/27 00:30:40;;;;;;;5.55;5.15;;;;;;;18.13;84.89;95532.25;5067761;28;20038;-55
2022/08/27 00:33:06;;;;;;;4.95;4.57;;;;;;;18.17;84.55;95541.50;5062178;28;20029;-56
2022/08/27 00:35:32;;;;;;;4.65;4.28;;;;;;;18.15;84.47;95538.22;5066689;28;20041;-57
2022/08/27 00:37:58;;;;;;;4.90;4.50;;;;;;;18.14;84.78;95542.75;5063501;28;20032;-56
2022/08/27 00:40:24;;;;;;;4.72;4.43;;;;;;;18.09;84.54;95534.47;5060046;28;20033;-55
2022/08/27 00:42:50;;;;;;;4.93;4.63;;;;;;;18.02;85.61;95542.44;5064779;28;20055;-54
2022/08/27 00:45:19;;;;;;;4.95;4.45;;;;;;;18.02;85.33;95533.59;5058087;28;20462;-57
2022/08/27 00:47:55;;;;;;;5.63;4.38;;;;;;;18.02;85.88;95544.25;5057134;28;20419;-57
2022/08/27 00:50:49;;;;;;;4.90;4.13;;;;;;;17.95;86.60;95544.16;5061925;28;20407;-59
2022/08/27 00:53:22;;;;;;;7.03;4.70;;;;;;;17.94;86.53;95539.88;5055884;28;21767;-59
2022/08/27 00:56:09;;;;;;;4.72;4.43;;;;;;;17.94;87.09;95541.72;5058028;28;20027;-57
2022/08/27 00:58:39;;;;;;;4.90;4.50;;;;;;;18.00;86.08;95541.75;5064279;28;20519;-59
2022/08/27 01:01:08;;;;;;;4.57;4.18;;;;;;;18.02;85.91;95542.44;5058160;28;20053;-58
2022/08/27 01:03:34;;;;;;;4.60;4.30;;;;;;;18.00;85.88;95535.63;5063351;28;20033;-57
2022/08/27 01:06:01;;;;;;;7.47;4.28;;;;;;;17.94;85.94;95537.19;5069042;28;20108;-58
2022/08/27 01:08:31;;;;;;;4.72;4.43;;;;;;;17.88;86.11;95535.31;5069342;28;20086;-58
2022/08/27 01:10:59;;;;;;;5.00;4.50;;;;;;;17.83;87.38;95543.06;5069318;28;20052;-59
2022/08/27 01:13:28;;;;;;;4.78;4.47;;;;;;;17.82;87.09;95544.06;5070968;28;20498;-58
2022/08/27 01:15:57;;;;;;;6.75;4.60;;;;;;;17.79;87.61;95539.09;5073601;28;20017;-58
2022/08/27 01:18:27;;;;;;;4.85;4.50;;;;;;;17.75;88.13;95544.81;5073139;28;20595;-54
2022/08/27 01:21:13;;;;;;;6.70;4.57;;;;;;;17.76;88.22;95543.00;5073425;28;20479;-58
2022/08/27 01:24:01;;;;;;;5.05;4.55;;;;;;;17.84;88.67;95536.72;5073109;28;20035;-59
2022/08/27 01:26:28;;;;;;;4.15;3.90;;;;;;;17.90;87.76;95542.09;5073008;28;20032;-58
2022/08/27 01:28:53;;;;;;;4.43;4.13;;;;;;;18.00;86.92;95533.75;5073137;28;20032;-58
2022/08/27 01:31:19;;;;;;;4.50;4.20;;;;;;;18.06;87.05;95539.38;5072580;28;20042;-59
2022/08/27 01:33:59;;;;;;;5.10;4.63;;;;;;;18.08;87.25;95529.34;5073209;28;20150;-58
2022/08/27 01:36:24;;;;;;;4.75;4.40;;;;;;;18.13;86.59;95526.94;5072358;28;20048;-58
2022/08/27 01:38:49;;;;;;;5.15;4.75;;;;;;;18.17;87.18;95522.84;5072341;28;20518;-57
2022/08/27 01:41:16;;;;;;;4.78;4.47;;;;;;;18.18;87.43;95521.84;5072614;28;20023;-59
2022/08/27 01:43:42;;;;;;;4.95;4.30;;;;;;;18.15;86.81;95525.72;5072951;28;20127;-58
2022/08/27 01:46:08;;;;;;;5.18;4.47;;;;;;;18.13;86.83;95519.78;5072785;28;20040;-58
2022/08/27 01:48:33;;;;;;;6.22;4.30;;;;;;;18.11;86.47;95516.47;5072892;28;20024;-57
2022/08/27 01:50:59;;;;;;;4.80;4.40;;;;;;;18.12;86.12;95514.63;5072448;28;20036;-58
2022/08/27 01:53:26;;;;;;;4.70;4.30;;;;;;;18.09;86.52;95507.84;5072559;28;20025;-59
2022/08/27 01:55:53;;;;;;;4.70;4.40;;;;;;;18.08;86.35;95505.38;5072325;28;20507;-57
2022/08/27 01:58:22;;;;;;;4.53;4.13;;;;;;;18.04;86.20;95512.94;5072297;28;20032;-56
2022/08/27 02:00:50;;;;;;;4.80;4.50;;;;;;;18.00;86.45;95511.66;5072383;28;20093;-58
2022/08/27 02:03:17;;;;;;;5.55;5.05;;;;;;;17.97;86.56;95507.50;5072550;28;20466;-58
2022/08/27 02:05:43;;;;;;;6.22;4.60;;;;;;;17.88;88.71;95506.03;5072322;28;20029;-56
2022/08/27 02:08:10;;;;;;;4.75;4.28;;;;;;;17.80;88.44;95514.97;5072509;28;20054;-58
2022/08/27 02:10:37;;;;;;;4.55;4.25;;;;;;;17.73;88.52;95501.59;5070792;28;20452;-57
2022/08/27 02:13:04;;;;;;;4.65;4.25;;;;;;;17.71;88.71;95502.81;5072250;28;20025;-57
2022/08/27 02:15:30;;;;;;;5.00;4.65;;;;;;;17.62;89.77;95496.78;5071925;28;20067;-57
2022/08/27 02:17:55;;;;;;;7.70;4.45;;;;;;;17.56;89.69;95493.06;5072163;28;20440;-58
2022/08/27 02:20:21;;;;;;;5.22;4.82;;;;;;;17.56;89.78;95492.22;5071973;28;20554;-58
2022/08/27 02:22:47;;;;;;;4.90;4.60;;;;;;;17.52;90.28;95490.94;5072303;28;20060;-58
2022/08/27 02:25:14;;;;;;;4.80;4.40;;;;;;;17.51;89.75;95495.47;5071232;28;20499;-58
2022/08/27 02:27:42;;;;;;;6.78;4.82;;;;;;;17.50;89.71;95491.16;5072266;28;20033;-58
2022/08/27 02:30:10;;;;;;;5.57;5.03;;;;;;;17.45;90.59;95494.38;5071988;28;20083;-57
2022/08/27 02:32:36;;;;;;;5.05;4.75;;;;;;;17.43;90.53;95488.44;5071990;28;20032;-58
2022/08/27 02:35:03;;;;;;;4.82;4.47;;;;;;;17.44;90.56;95490.06;5071669;28;20194;-57
2022/08/27 02:37:29;;;;;;;4.72;4.43;;;;;;;17.39;90.04;95487.16;5071774;28;20032;-59
2022/08/27 02:39:54;;;;;;;5.00;4.70;;;;;;;17.36;89.61;95487.56;5071744;28;20453;-61
2022/08/27 02:42:20;;;;;;;5.80;5.30;;;;;;;17.31;90.28;95487.28;5071807;28;20023;-61
2022/08/27 02:44:46;;;;;;;7.82;4.65;;;;;;;17.27;90.78;95492.16;5071556;28;20093;-61
2022/08/27 02:47:11;;;;;;;5.20;4.70;;;;;;;17.25;90.49;95490.69;5071764;28;20157;-61
2022/08/27 02:49:37;;;;;;;5.47;4.35;;;;;;;17.27;90.48;95494.81;5071380;28;20017;-62
2022/08/27 02:52:03;;;;;;;5.15;4.65;;;;;;;17.29;90.24;95497.28;5071658;28;20372;-61
2022/08/27 02:54:28;;;;;;;7.72;4.63;;;;;;;17.24;90.75;95495.22;5071710;28;20013;-61
2022/08/27 02:56:54;;;;;;;4.65;4.28;;;;;;;17.23;90.39;95493.53;5071455;28;20479;-61
2022/08/27 02:59:21;;;;;;;4.78;4.43;;;;;;;17.15;91.61;95486.53;5071305;28;20157;-61
2022/08/27 03:01:47;;;;;;;5.10;4.80;;;;;;;17.15;90.71;95486.53;5071404;28;20115;-61
2022/08/27 03:04:13;;;;;;;5.25;4.85;;;;;;;17.08;91.51;95490.91;5071438;28;20031;-61
2022/08/27 03:06:39;;;;;;;11.13;4.80;;;;;;;17.03;91.61;95491.50;5071496;28;20025;-61
2022/08/27 03:09:04;;;;;;;5.13;4.68;;;;;;;17.08;90.89;95490.09;5070973;28;20016;-61
2022/08/27 03:11:30;;;;;;;4.65;4.35;;;;;;;17.13;90.39;95488.53;5070870;28;20078;-61
2022/08/27 03:13:57;;;;;;;5.38;4.78;;;;;;;17.12;90.12;95486.88;5070907;28;20013;-60
2022/08/27 03:16:22;;;;;;;5.00;4.60;;;;;;;17.07;91.43;95489.28;5069574;28;20033;-61
2022/08/27 03:18:48;;;;;;;5.00;4.60;;;;;;;16.94;92.06;95483.78;5070511;28;20027;-62
2022/08/27 03:21:22;;;;;;;4.50;4.20;;;;;;;16.89;91.49;95485.16;5071247;28;20464;-62
2022/08/27 03:23:48;;;;;;;5.10;4.70;;;;;;;16.89;91.51;95479.03;5070821;28;20031;-61
2022/08/27 03:26:13;;;;;;;4.50;4.20;;;;;;;16.87;92.23;95479.19;5071065;28;20025;-61
2022/08/27 03:28:39;;;;;;;4.90;4.50;;;;;;;16.89;92.00;95479.03;5070753;28;20054;-61
2022/08/27 03:31:06;;;;;;;6.00;4.60;;;;;;;16.87;92.74;95471.22;5070727;28;20539;-61
2022/08/27 03:33:35;;;;;;;5.10;4.70;;;;;;;16.84;92.98;95470.78;5070622;28;20037;-61
2022/08/27 03:36:01;;;;;;;5.03;4.63;;;;;;;16.82;93.87;95480.78;5070074;28;20037;-61
2022/08/27 03:38:26;;;;;;;5.22;4.72;;;;;;;16.77;93.52;95468.06;5060182;28;20035;-60
2022/08/27 03:40:52;;;;;;;5.50;5.10;;;;;;;16.72;93.73;95475.75;5070462;28;20033;-59
2022/08/27 03:43:19;;;;;;;5.40;5.05;;;;;;;16.73;93.05;95467.59;5058188;28;20021;-60
2022/08/27 03:45:46;;;;;;;5.28;4.88;;;;;;;16.77;93.44;95473.38;5070630;28;20554;-59
2022/08/27 03:48:12;;;;;;;5.30;4.90;;;;;;;16.74;94.24;95465.75;5070537;28;20074;-62
2022/08/27 03:50:41;;;;;;;4.93;4.63;;;;;;;16.71;94.73;95466.16;5070110;28;20067;-59
2022/08/27 03:53:07;;;;;;;5.10;4.80;;;;;;;16.72;93.59;95470.44;5070417;28;20028;-60
2022/08/27 03:55:32;;;;;;;4.38;4.10;;;;;;;16.76;93.15;95477.03;5068857;28;20036;-60
2022/08/27 03:57:58;;;;;;;5.32;4.93;;;;;;;16.79;93.24;95466.03;5070131;28;20050;-60
2022/08/27 04:00:24;;;;;;;4.97;4.45;;;;;;;16.80;93.98;95462.34;5068703;28;20040;-59
2022/08/27 04:02:50;;;;;;;10.13;4.82;;;;;;;16.79;94.03;95462.53;5070527;28;20407;-59
2022/08/27 04:05:16;;;;;;;4.90;4.50;;;;;;;16.83;92.86;95455.84;5070050;28;20021;-60
2022/08/27 04:07:42;;;;;;;5.22;4.72;;;;;;;16.86;92.34;95453.63;5069901;28;20503;-60
2022/08/27 04:10:10;;;;;;;4.30;4.10;;;;;;;16.85;93.47;95456.50;5068539;28;20058;-59
2022/08/27 04:12:37;;;;;;;5.18;4.80;;;;;;;16.86;93.36;95461.59;5070020;28;20023;-60
2022/08/27 04:15:03;;;;;;;9.23;4.97;;;;;;;16.87;92.88;95455.28;5069999;28;20025;-59
2022/08/27 04:17:29;;;;;;;5.28;4.78;;;;;;;16.93;92.66;95461.69;5070079;28;20419;-60
2022/08/27 04:19:55;;;;;;;6.00;4.63;;;;;;;16.99;92.77;95457.50;5069813;28;20037;-60
2022/08/27 04:22:22;;;;;;;4.78;4.38;;;;;;;17.03;93.25;95448.13;5070131;28;20031;-60
2022/08/27 04:24:48;;;;;;;5.45;4.95;;;;;;;17.07;92.94;95451.22;5069981;28;20029;-59
2022/08/27 04:27:14;;;;;;;5.13;4.72;;;;;;;17.09;93.47;95452.66;5069812;28;20357;-60
2022/08/27 04:29:40;;;;;;;4.97;4.63;;;;;;;17.11;94.19;95449.84;5069840;28;20031;-59
2022/08/27 04:32:06;;;;;;;5.20;4.82;;;;;;;17.16;93.42;95458.06;5069856;28;20111;-60
2022/08/27 04:34:32;;;;;;;5.03;4.63;;;;;;;17.19;92.75;95455.03;5069718;28;20108;-59
2022/08/27 04:36:57;;;;;;;5.22;4.80;;;;;;;17.21;92.45;95454.84;5069208;28;20102;-60
2022/08/27 04:39:25;;;;;;;6.22;5.15;;;;;;;17.25;92.67;95454.28;5069722;28;20032;-59
2022/08/27 04:41:51;;;;;;;6.20;4.65;;;;;;;17.27;92.13;95454.91;5069932;28;20369;-60
2022/08/27 04:44:17;;;;;;;5.13;4.82;;;;;;;17.30;91.71;95456.34;5069429;28;20020;-60
2022/08/27 04:46:42;;;;;;;5.22;4.72;;;;;;;17.32;91.11;95449.84;5069611;28;20012;-60
2022/08/27 04:49:11;;;;;;;4.93;4.60;;;;;;;17.38;90.72;95460.72;5069202;28;20484;-59
2022/08/27 04:51:37;;;;;;;5.50;5.00;;;;;;;17.38;92.37;95463.41;5069810;28;20021;-59
2022/08/27 04:54:05;;;;;;;5.30;4.90;;;;;;;17.36;92.04;95466.25;5069510;28;20032;-60
2022/08/27 04:56:31;;;;;;;6.75;4.65;;;;;;;17.37;93.12;95453.78;5069494;28;20060;-60
2022/08/27 04:58:56;;;;;;;4.70;4.38;;;;;;;17.36;92.92;95462.75;5069443;28;20542;-59
2022/08/27 05:01:26;;;;;;;5.20;4.85;;;;;;;17.40;92.88;95472.84;5069645;28;20027;-59
2022/08/27 05:03:52;;;;;;;5.85;5.35;;;;;;;17.41;92.63;95473.66;5069746;28;20024;-60
2022/08/27 05:06:18;;;;;;;5.25;4.75;;;;;;;17.46;92.11;95469.41;5069490;28;20031;-60
2022/08/27 05:08:43;;;;;;;5.55;5.00;;;;;;;17.44;91.47;95468.78;5069425;28;20016;-59
2022/08/27 05:11:13;;;;;;;5.03;4.60;;;;;;;17.47;91.10;95471.06;5069411;28;20416;-59
2022/08/27 05:13:40;;;;;;;5.20;4.75;;;;;;;17.50;91.44;95469.88;5069304;28;20052;-60
2022/08/27 05:16:09;;;;;;;5.13;4.63;;;;;;;17.54;91.76;95470.28;5069360;28;20036;-60
2022/08/27 05:18:36;;;;;;;4.85;4.55;;;;;;;17.55;90.91;95469.28;5069097;28;20028;-60
2022/08/27 05:21:02;;;;;;;5.47;5.00;;;;;;;17.55;90.27;95462.13;5069320;28;20404;-60
2022/08/27 05:23:27;;;;;;;4.78;4.47;;;;;;;17.59;89.01;95468.72;5069093;28;20032;-60
2022/08/27 05:25:53;;;;;;;4.95;4.47;;;;;;;17.65;87.48;95471.63;5069695;28;20116;-60
2022/08/27 05:28:20;;;;;;;4.70;4.40;;;;;;;17.67;87.24;95466.91;5069128;28;20262;-60
2022/08/27 05:30:49;;;;;;;5.13;4.78;;;;;;;17.66;87.86;95467.94;5069223;28;20029;-60
2022/08/27 05:33:17;;;;;;;4.82;4.50;;;;;;;17.66;87.31;95466.09;5069109;28;20043;-60
2022/08/27 05:35:46;;;;;;;5.00;4.70;;;;;;;17.68;86.85;95461.41;5069057;28;20132;-60
2022/08/27 05:38:12;;;;;;;5.20;4.75;;;;;;;17.71;86.05;95469.00;5068664;28;20415;-60
2022/08/27 05:40:39;;;;;;;8.85;4.53;;;;;;;17.73;85.85;95472.31;5069104;28;20021;-59
2022/08/27 05:43:05;;;;;;;6.07;4.90;;;;;;;17.75;86.02;95472.13;5069058;28;20024;-60
2022/08/27 05:45:32;;;;;;;4.80;4.50;;;;;;;17.79;85.71;95475.22;5069052;28;20035;-60
2022/08/27 05:47:57;;;;;;;5.07;4.78;;;;;;;17.81;85.31;95475.88;5069061;28;20036;-59
2022/08/27 05:50:25;;;;;;;4.45;4.07;;;;;;;17.83;85.30;95477.28;5068881;28;20024;-59
2022/08/27 05:52:51;;;;;;;4.70;4.40;;;;;;;17.81;86.85;95479.34;5068874;28;20033;-60
2022/08/27 05:55:16;;;;;;;5.00;4.60;;;;;;;17.81;87.96;95474.00;5068878;28;20035;-59
2022/08/27 05:57:42;;;;;;;4.57;4.28;;;;;;;17.76;87.85;95481.75;5068692;28;20025;-59
2022/08/27 06:02:52;;;;;;;4.70;4.40;;;;;;;17.82;87.84;95472.19;5072846;28;20035;-60
2022/08/27 06:05:18;;;;;;;5.10;4.70;;;;;;;17.79;90.26;95484.03;5071960;28;20028;-60
2022/08/27 06:07:44;;;;;;;5.20;4.80;;;;;;;17.80;89.18;95487.53;5072295;28;20541;-60
2022/08/27 06:10:10;;;;;;;5.57;4.60;;;;;;;17.82;89.02;95480.16;5071997;28;20028;-60
2022/08/27 06:12:36;;;;;;;4.88;4.57;;;;;;;17.82;88.95;95482.84;5072157;28;20480;-60
2022/08/27 06:15:02;;;;;;;5.65;5.13;;;;;;;17.79;89.25;95485.84;5072368;28;20039;-59
2022/08/27 06:17:28;;;;;;;4.60;4.30;;;;;;;17.93;87.69;95487.63;5072360;28;20017;-60
2022/08/27 06:19:53;;;;;;;5.55;5.10;;;;;;;17.90;87.99;95488.00;5072116;28;20043;-60
2022/08/27 06:22:18;;;;;;;5.70;5.13;;;;;;;17.97;87.09;95488.88;5072192;28;20020;-60
2022/08/27 06:24:44;;;;;;;5.30;4.85;;;;;;;17.95;87.17;95480.25;5072011;28;20033;-60
2022/08/27 06:27:14;;;;;;;6.88;5.03;;;;;;;18.07;86.61;95488.56;5072217;28;20024;-60
2022/08/27 06:29:39;;;;;;;5.28;4.88;;;;;;;17.99;86.90;95489.50;5071856;28;20025;-60
2022/08/27 06:32:05;;;;;;;7.18;5.20;;;;;;;17.91;87.40;95492.31;5071953;28;20027;-58
2022/08/27 06:34:32;;;;;;;5.75;5.30;;;;;;;17.87;88.27;95494.53;5071989;28;20487;-60
2022/08/27 06:36:57;;;;;;;5.07;4.68;;;;;;;18.01;87.27;95492.81;5071680;28;20088;-59
2022/08/27 06:39:23;;;;;;;6.65;4.47;;;;;;;18.02;87.18;95491.00;5071478;28;20059;-60
2022/08/27 06:41:49;;;;;;;5.65;4.88;;;;;;;17.99;87.32;95492.16;5071840;28;20461;-59
2022/08/27 06:44:14;;;;;;;5.60;5.13;;;;;;;17.92;88.11;95493.97;5071491;28;20029;-60
2022/08/27 06:46:41;;;;;;;5.30;4.88;;;;;;;17.92;88.26;95491.28;5071498;28;20082;-60
2022/08/27 06:49:07;;;;;;;5.40;4.90;;;;;;;17.95;87.80;95493.56;5071453;28;20040;-60
2022/08/27 06:51:35;;;;;;;11.18;5.03;;;;;;;17.93;87.84;95486.81;5071865;28;20020;-60
2022/08/27 06:54:05;;;;;;;6.03;5.47;;;;;;;17.99;88.00;95491.34;5070493;28;20112;-60
2022/08/27 06:56:31;;;;;;;7.70;4.88;;;;;;;18.09;87.81;95491.06;5071554;28;20035;-60
2022/08/27 06:59:00;;;;;;;7.80;5.20;;;;;;;17.97;88.98;95491.53;5071386;28;20029;-60
2022/08/27 07:01:31;;;;;;;16.80;5.38;;;;;;;18.09;89.31;95485.72;5071221;28;20028;-61
2022/08/27 07:03:59;;;;;;;8.35;5.85;;;;;;;17.83;91.76;95490.59;5071145;28;20020;-61
2022/08/27 07:06:27;;;;;;;6.00;5.50;;;;;;;18.02;90.58;95491.00;5071186;28;20094;-62
2022/08/27 07:08:53;;;;;;;9.93;5.25;;;;;;;17.92;90.98;95493.16;5071045;28;20025;-61
2022/08/27 07:11:20;;;;;;;6.50;5.95;;;;;;;17.71;92.69;95497.50;5070736;28;20095;-61
2022/08/27 07:13:46;;;;;;;6.82;5.65;;;;;;;17.67;93.39;95499.69;5070809;28;20458;-61
2022/08/27 07:16:15;;;;;;;7.55;6.05;;;;;;;17.73;92.86;95493.59;5070972;28;20025;-61
2022/08/27 07:18:41;;;;;;;6.03;5.43;;;;;;;17.75;92.77;95491.56;5070803;28;20094;-61
2022/08/27 07:21:08;;;;;;;6.50;5.90;;;;;;;17.81;92.36;95497.16;5071210;28;20522;-61
2022/08/27 07:23:36;;;;;;;5.75;5.25;;;;;;;17.87;91.13;95493.72;5070462;28;20020;-61
2022/08/27 07:26:08;;;;;;;6.18;5.68;;;;;;;17.92;92.22;95490.50;5070550;28;20017;-61
2022/08/27 07:28:35;;;;;;;6.65;6.05;;;;;;;18.03;91.64;95497.97;5070383;28;20021;-61
2022/08/27 07:31:00;;;;;;;6.30;5.55;;;;;;;18.07;92.03;95501.88;5070465;28;20020;-60
2022/08/27 07:33:25;;;;;;;7.22;6.53;;;;;;;18.04;91.96;95500.44;5069937;28;20024;-62
2022/08/27 07:35:51;;;;;;;6.13;5.63;;;;;;;18.05;92.26;95501.25;5070238;28;20051;-62
2022/08/27 07:38:17;;;;;;;6.82;6.22;;;;;;;18.09;91.88;95499.84;5070240;28;20021;-65
2022/08/27 07:40:42;;;;;;;7.20;6.28;;;;;;;18.36;90.36;95505.38;5070525;28;20024;-64
2022/08/27 07:45:54;;;;;;;7.18;6.07;;;;;;;18.10;91.62;95503.34;5070623;28;20044;-63
2022/08/27 07:48:24;;;;;;;6.55;5.95;;;;;;;18.11;91.52;95502.34;5070315;28;20025;-63
2022/08/27 07:50:51;;;;;;;6.72;6.13;;;;;;;18.04;92.10;95504.94;5070071;28;20408;-64
2022/08/27 07:53:17;;;;;;;7.72;5.93;;;;;;;18.13;90.97;95506.47;5070414;28;20025;-64
2022/08/27 07:55:43;;;;;;;6.18;5.63;;;;;;;18.09;90.84;95513.16;5068822;28;20563;-65
2022/08/27 07:58:09;;;;;;;6.45;5.95;;;;;;;18.13;90.37;95508.28;5070237;28;20044;-64
2022/08/27 08:00:34;;;;;;;7.30;6.18;;;;;;;18.22;90.35;95515.09;5069775;28;20081;-63
2022/08/27 08:03:00;;;;;;;6.10;5.60;;;;;;;18.29;89.66;95513.31;5069816;28;20077;-63
2022/08/27 08:05:26;;;;;;;7.43;5.97;;;;;;;18.26;89.90;95518.22;5070192;28;20398;-64
2022/08/27 08:07:51;;;;;;;8.30;6.10;;;;;;;18.25;90.88;95519.22;5070049;28;20032;-64
2022/08/27 08:10:21;;;;;;;6.57;5.97;;;;;;;18.28;90.41;95518.84;5069586;28;20017;-64
2022/08/27 08:12:47;;;;;;;6.47;5.97;;;;;;;18.32;89.94;95523.59;5070001;28;20483;-64
2022/08/27 08:15:12;;;;;;;6.38;5.65;;;;;;;18.33;87.99;95530.56;5069763;28;20530;-64
2022/08/27 08:17:38;;;;;;;6.57;6.07;;;;;;;18.36;88.35;95533.84;5070283;28;20028;-64
2022/08/27 08:20:06;;;;;;;8.80;5.50;;;;;;;18.44;88.29;95533.69;5069889;28;20017;-64
2022/08/27 08:22:32;;;;;;;5.78;5.35;;;;;;;18.46;88.46;95534.34;5069205;28;20016;-63
2022/08/27 08:24:57;;;;;;;5.50;5.00;;;;;;;18.49;88.96;95539.28;5069714;28;20360;-65
2022/08/27 08:27:23;;;;;;;5.68;5.28;;;;;;;18.51;88.59;95539.06;5070044;28;20025;-64
2022/08/27 08:29:48;;;;;;;6.35;5.80;;;;;;;18.50;88.77;95538.25;5069540;28;20104;-65
2022/08/27 08:32:15;;;;;;;5.68;5.28;;;;;;;18.52;89.14;95530.88;5069483;28;20086;-65
2022/08/27 08:34:40;;;;;;;5.85;5.43;;;;;;;18.54;89.26;95536.84;5069731;28;20495;-63
2022/08/27 08:37:06;;;;;;;6.53;4.95;;;;;;;18.58;89.16;95538.09;5069649;28;20028;-65
2022/08/27 08:39:31;;;;;;;5.80;5.30;;;;;;;18.66;88.02;95538.94;5069511;28;20128;-62
2022/08/27 08:42:02;;;;;;;6.00;5.50;;;;;;;18.77;87.53;95538.41;5069825;28;20033;-61
2022/08/27 08:44:43;;;;;;;5.63;5.13;;;;;;;18.81;86.17;95533.50;5069417;28;20075;-61
2022/08/27 08:47:32;;;;;;;5.90;5.22;;;;;;;18.81;86.10;95534.31;5069729;28;20020;-62
2022/08/27 08:50:12;;;;;;;5.40;5.00;;;;;;;18.97;85.23;95524.34;5057757;28;20056;-62
2022/08/27 08:52:42;;;;;;;5.55;5.05;;;;;;;19.00;83.20;95527.44;5068939;28;20103;-62
2022/08/27 08:55:14;;;;;;;5.70;5.30;;;;;;;19.10;84.06;95529.75;5069545;28;20029;-62
2022/08/27 08:58:02;;;;;;;5.97;5.05;;;;;;;19.27;84.03;95526.72;5069133;28;20074;-63
2022/08/27 09:00:27;;;;;;;6.25;4.97;;;;;;;19.35;83.85;95526.56;5068700;28;20041;-62
2022/08/27 09:02:54;;;;;;;5.43;4.93;;;;;;;19.45;82.20;95532.34;5069463;28;20702;-62
2022/08/27 09:05:20;;;;;;;4.78;4.47;;;;;;;19.46;81.98;95525.16;5069415;28;20043;-60
2022/08/27 09:08:02;;;;;;;5.00;4.60;;;;;;;19.62;80.94;95523.94;5069552;28;20036;-63
2022/08/27 09:10:43;;;;;;;6.80;4.80;;;;;;;19.75;80.20;95521.28;5069260;28;20402;-64
2022/08/27 09:13:36;;;;;;;4.85;4.55;;;;;;;19.82;79.27;95517.81;5069659;28;20020;-63
2022/08/27 09:16:03;;;;;;;5.78;5.28;;;;;;;19.92;79.88;95522.78;5068895;28;20044;-64
2022/08/27 09:18:29;;;;;;;4.72;4.22;;;;;;;19.91;78.86;95519.28;5068963;28;20147;-62
2022/08/27 09:21:09;;;;;;;5.15;4.75;;;;;;;19.89;77.85;95523.97;5069431;28;20085;-62
2022/08/27 09:24:03;;;;;;;5.50;5.07;;;;;;;19.89;80.21;95526.66;5069108;28;20135;-63
2022/08/27 09:26:31;;;;;;;4.95;4.50;;;;;;;19.98;79.41;95525.44;5068677;28;20055;-65
2022/08/27 09:31:56;;;;;;;5.60;5.07;;;;;;;20.16;79.45;95516.81;5069348;28;20395;-62
2022/08/27 09:34:23;;;;;;;5.75;4.82;;;;;;;20.17;78.91;95518.47;5069388;28;20021;-62
2022/08/27 09:37:09;;;;;;;5.30;4.80;;;;;;;20.20;77.96;95511.88;5073068;28;20044;-63
2022/08/27 09:39:40;;;;;;;6.82;4.70;;;;;;;20.31;78.63;95516.59;5072591;28;20028;-65
2022/08/27 09:42:07;;;;;;;4.47;4.18;;;;;;;20.32;78.72;95515.56;5072886;28;20531;-61
2022/08/27 09:44:46;;;;;;;5.32;4.82;;;;;;;20.35;76.40;95524.19;5072476;28;20021;-61
2022/08/27 09:47:14;;;;;;;4.85;4.45;;;;;;;20.43;76.44;95510.59;5072903;28;20082;-62
2022/08/27 09:49:40;;;;;;;6.00;4.45;;;;;;;20.43;75.67;95510.59;5072494;28;20028;-63
2022/08/27 09:52:07;;;;;;;4.50;4.20;;;;;;;20.45;77.18;95514.72;5072668;28;20025;-64
2022/08/27 09:54:46;;;;;;;5.75;4.70;;;;;;;20.60;76.02;95511.00;5072585;28;20104;-69
2022/08/27 09:57:24;;;;;;;8.18;4.45;;;;;;;20.61;74.46;95516.13;5072471;28;20482;-63
2022/08/27 09:59:52;;;;;;;5.40;4.88;;;;;;;20.70;74.37;95511.38;5072913;28;20551;-64
2022/08/27 10:02:21;;;;;;;5.53;4.90;;;;;;;20.71;75.32;95513.00;5072618;28;20501;-64
2022/08/27 10:04:57;;;;;;;5.05;4.75;;;;;;;20.65;76.69;95519.19;5072570;28;20029;-62
2022/08/27 10:07:38;;;;;;;5.07;4.68;;;;;;;20.79;76.02;95517.31;5071986;28;20020;-65
2022/08/27 10:10:39;;;;;;;5.22;4.82;;;;;;;20.97;72.20;95513.97;5072231;28;20030;-64
2022/08/27 10:13:12;;;;;;;4.78;4.47;;;;;;;21.05;72.14;95518.28;5070201;28;20044;-64
2022/08/27 10:16:09;;;;;;;7.22;4.70;;;;;;;21.02;72.82;95519.53;5072184;28;20434;-65
2022/08/27 10:18:49;;;;;;;5.05;4.47;;;;;;;20.89;73.64;95514.22;5072089;28;20024;-65
2022/08/27 10:21:31;;;;;;;5.20;4.63;;;;;;;20.97;72.36;95513.97;5071856;28;20025;-64
2022/08/27 10:24:32;;;;;;;4.78;4.38;;;;;;;21.14;71.13;95517.00;5059902;28;20033;-64
2022/08/27 10:27:12;;;;;;;5.20;4.05;;;;;;;21.15;69.99;95510.63;5072000;28;20025;-64
2022/08/27 10:29:51;;;;;;;4.72;4.35;;;;;;;21.13;70.71;95509.19;5071814;28;20544;-65
2022/08/27 10:32:53;;;;;;;5.30;4.93;;;;;;;21.14;71.08;95516.19;5071726;28;20016;-64
2022/08/27 10:35:33;;;;;;;5.25;4.75;;;;;;;21.43;70.50;95509.44;5059670;28;20037;-65
2022/08/27 10:38:16;;;;;;;5.30;4.80;;;;;;;21.42;71.06;95502.44;5071711;28;20064;-65
2022/08/27 10:40:54;;;;;;;6.82;5.50;;;;;;;21.54;70.12;95504.41;5071987;28;20040;-63
2022/08/27 10:43:44;;;;;;;5.78;4.57;;;;;;;21.59;69.88;95504.63;5072163;28;20028;-63
2022/08/27 10:46:27;;;;;;;5.45;4.95;;;;;;;21.73;70.61;95494.66;5071019;28;20065;-66
2022/08/27 10:49:27;;;;;;;6.07;4.70;;;;;;;21.66;71.18;95497.38;5072091;28;20097;-64
2022/08/27 10:51:59;;;;;;;6.32;4.85;;;;;;;21.76;69.58;95496.91;5062777;28;20050;-63
2022/08/27 10:54:35;;;;;;;4.40;4.10;;;;;;;21.78;70.16;95488.66;5071729;28;20495;-62
2022/08/27 10:57:21;;;;;;;4.90;4.50;;;;;;;21.75;70.80;95495.25;5070329;28;20139;-63
2022/08/27 11:00:15;;;;;;;10.05;4.40;;;;;;;21.80;69.90;95489.25;5071526;28;20036;-65
2022/08/27 11:02:46;;;;;;;4.75;4.40;;;;;;;22.07;67.89;95483.66;5071375;28;20025;-64
2022/08/27 11:05:26;;;;;;;5.25;4.85;;;;;;;21.97;67.40;95484.16;5070937;28;20024;-65
2022/08/27 11:08:04;;;;;;;4.95;4.55;;;;;;;22.25;66.83;95482.88;5070342;28;20036;-64
2022/08/27 11:10:32;;;;;;;4.90;4.50;;;;;;;22.27;67.14;95487.00;5070893;28;20472;-65
2022/08/27 11:13:05;;;;;;;4.72;4.30;;;;;;;22.61;65.79;95479.44;5071149;28;20150;-66
2022/08/27 11:15:35;;;;;;;4.30;3.90;;;;;;;23.27;64.91;95472.69;5071036;28;20034;-65
2022/08/27 11:18:19;;;;;;;4.68;4.28;;;;;;;23.99;61.86;95471.00;5070980;28;20058;-61
2022/08/27 11:20:54;;;;;;;4.85;4.45;;;;;;;24.42;60.22;95477.09;5059387;28;20024;-62
2022/08/27 11:23:30;;;;;;;4.63;4.22;;;;;;;24.29;59.53;95468.25;5070940;28;20523;-63
2022/08/27 11:25:58;;;;;;;4.13;3.75;;;;;;;24.24;58.16;95476.19;5071111;28;20029;-62
2022/08/27 11:28:43;;;;;;;4.45;4.13;;;;;;;24.30;60.26;95469.88;5071046;28;20085;-61
2022/08/27 11:31:12;;;;;;;4.30;3.80;;;;;;;24.37;59.10;95471.63;5070747;28;20039;-62
2022/08/27 11:33:58;;;;;;;3.85;3.55;;;;;;;24.48;58.62;95467.28;5070791;28;20267;-61
2022/08/27 11:36:33;;;;;;;4.20;3.90;;;;;;;24.64;59.12;95471.13;5070552;28;20048;-62
2022/08/27 11:39:15;;;;;;;3.97;3.67;;;;;;;24.18;59.54;95467.19;5070937;28;20381;-61
2022/08/27 11:42:02;;;;;;;4.75;4.35;;;;;;;24.09;57.13;95462.38;5069246;28;20708;-61
2022/08/27 11:44:27;;;;;;;3.90;3.53;;;;;;;24.49;55.98;95464.38;5070683;28;20017;-61
2022/08/27 11:46:56;;;;;;;4.00;3.70;;;;;;;25.14;54.13;95467.88;5071801;28;20023;-61
2022/08/27 11:49:44;;;;;;;15.73;3.78;;;;;;;25.74;53.57;95462.22;5070181;28;20450;-61
2022/08/27 11:52:09;;;;;;;3.78;3.28;;;;;;;26.40;52.74;95458.09;5070456;28;20025;-61
2022/08/27 11:55:19;;;;;;;5.03;3.10;;;;;;;26.54;53.15;95450.50;5070525;28;20442;-63